createdAt,value
2023-04-30T00:01:00.360Z,97.83
2023-04-30T00:03:27.429Z,98.07
2023-04-30T00:05:54.503Z,98.46
2023-04-30T00:08:21.475Z,98.55
2023-04-30T00:10:48.701Z,98.82
2023-04-30T00:13:15.568Z,98.88
2023-04-30T00:15:42.719Z,99.13
2023-04-30T00:18:09.673Z,99.43
2023-04-30T00:20:36.585Z,99.57
2023-04-30T00:23:03.691Z,99.24
2023-04-30T00:25:30.628Z,99.47
2023-04-30T00:27:57.584Z,99.69
2023-04-30T00:30:24.455Z,99.89
2023-04-30T00:32:51.412Z,99.91
2023-04-30T00:35:18.553Z,100.00
2023-04-30T00:37:45.922Z,100.00
2023-04-30T00:40:13.379Z,100.00
2023-04-30T00:42:40.635Z,100.00
2023-04-30T00:45:08.585Z,100.00
2023-04-30T00:47:35.878Z,100.00
2023-04-30T00:50:02.889Z,100.00
2023-04-30T00:52:29.906Z,100.00
2023-04-30T00:54:57.679Z,100.00
2023-04-30T00:57:25.578Z,100.00
2023-04-30T00:59:53.016Z,100.00
2023-04-30T01:02:20.476Z,100.00
2023-04-30T01:04:47.636Z,100.00
2023-04-30T01:07:14.573Z,100.00
2023-04-30T01:09:41.600Z,100.00
2023-04-30T01:12:20.517Z,100.00
2023-04-30T01:14:59.302Z,100.00
2023-04-30T01:18:08.096Z,100.00
2023-04-30T01:20:39.621Z,100.00
2023-04-30T01:23:36.749Z,100.00
2023-04-30T01:26:59.534Z,100.00
2023-04-30T01:29:28.099Z,100.00
2023-04-30T01:31:54.955Z,100.00
2023-04-30T01:34:24.935Z,100.00
2023-04-30T01:37:29.439Z,100.00
2023-04-30T01:40:11.481Z,100.00
2023-04-30T01:43:12.779Z,100.00
2023-04-30T01:46:16.680Z,100.00
2023-04-30T01:48:56.457Z,100.00
2023-04-30T01:51:38.574Z,100.00
2023-04-30T01:55:00.493Z,100.00
2023-04-30T01:57:42.349Z,100.00
2023-04-30T02:00:13.702Z,100.00
2023-04-30T02:02:41.110Z,100.00
2023-04-30T02:05:08.549Z,100.00
2023-04-30T02:07:44.266Z,100.00
2023-04-30T02:10:14.986Z,100.00
2023-04-30T02:12:41.884Z,100.00
2023-04-30T02:15:09.890Z,100.00
2023-04-30T02:17:37.213Z,100.00
2023-04-30T02:20:04.932Z,100.00
2023-04-30T02:22:31.870Z,100.00
2023-04-30T02:24:59.844Z,100.00
2023-04-30T02:27:27.607Z,100.00
2023-04-30T02:29:54.832Z,100.00
2023-04-30T02:32:22.691Z,100.00
2023-04-30T02:34:50.027Z,100.00
2023-04-30T02:37:17.144Z,100.00
2023-04-30T02:39:44.100Z,100.00
2023-04-30T02:42:11.467Z,100.00
2023-04-30T02:44:38.335Z,100.00
2023-04-30T02:47:05.725Z,100.00
2023-04-30T02:49:32.615Z,100.00
2023-04-30T02:51:59.782Z,100.00
2023-04-30T02:54:26.669Z,100.00
2023-04-30T02:56:53.812Z,100.00
2023-04-30T02:59:21.101Z,100.00
2023-04-30T03:01:48.151Z,100.00
2023-04-30T03:04:15.054Z,100.00
2023-04-30T03:06:41.983Z,100.00
2023-04-30T03:09:09.043Z,100.00
2023-04-30T03:11:37.894Z,100.00
2023-04-30T03:14:08.111Z,100.00
2023-04-30T03:16:35.123Z,100.00
2023-04-30T03:19:02.024Z,100.00
2023-04-30T03:21:29.320Z,100.00
2023-04-30T03:23:56.296Z,100.00
2023-04-30T03:26:23.201Z,100.00
2023-04-30T03:28:50.395Z,100.00
2023-04-30T03:31:17.310Z,100.00
2023-04-30T03:33:44.363Z,100.00
2023-04-30T03:36:11.250Z,100.00
2023-04-30T03:38:38.178Z,100.00
2023-04-30T03:41:05.803Z,100.00
2023-04-30T03:43:32.727Z,100.00
2023-04-30T03:45:59.744Z,100.00
2023-04-30T03:48:27.476Z,100.00
2023-04-30T03:50:54.502Z,100.00
2023-04-30T03:53:21.757Z,100.00
2023-04-30T03:55:50.242Z,100.00
2023-04-30T03:58:17.592Z,100.00
2023-04-30T04:00:46.067Z,100.00
2023-04-30T04:03:13.205Z,100.00
2023-04-30T04:05:40.101Z,100.00
2023-04-30T04:08:08.121Z,100.00
2023-04-30T04:10:35.692Z,100.00
2023-04-30T04:13:02.616Z,100.00
2023-04-30T04:15:29.814Z,100.00
2023-04-30T04:17:56.868Z,100.00
2023-04-30T04:20:23.851Z,100.00
2023-04-30T04:22:51.243Z,100.00
2023-04-30T04:25:18.421Z,100.00
2023-04-30T04:27:45.769Z,100.00
2023-04-30T04:30:13.896Z,100.00
2023-04-30T04:32:46.899Z,100.00
2023-04-30T04:35:19.188Z,100.00
2023-04-30T04:37:46.532Z,100.00
2023-04-30T04:40:13.833Z,100.00
2023-04-30T04:42:40.897Z,100.00
2023-04-30T04:45:08.876Z,100.00
2023-04-30T04:47:36.951Z,100.00
2023-04-30T04:50:04.183Z,100.00
2023-04-30T04:52:31.179Z,100.00
2023-04-30T04:54:58.404Z,100.00
2023-04-30T04:57:25.982Z,100.00
2023-04-30T04:59:53.547Z,100.00
2023-04-30T05:02:21.481Z,100.00
2023-04-30T05:04:50.676Z,100.00
2023-04-30T05:07:18.483Z,100.00
2023-04-30T05:09:49.558Z,100.00
2023-04-30T05:12:16.651Z,100.00
2023-04-30T05:14:44.209Z,100.00
2023-04-30T05:17:11.311Z,100.00
2023-04-30T05:19:38.192Z,100.00
2023-04-30T05:22:05.975Z,100.00
2023-04-30T05:24:33.113Z,99.68
2023-04-30T05:27:00.112Z,98.79
2023-04-30T05:29:26.989Z,97.62
2023-04-30T05:31:54.813Z,96.60
2023-04-30T05:34:21.810Z,95.18
2023-04-30T05:36:48.881Z,94.04
2023-04-30T05:39:15.932Z,93.00
2023-04-30T05:41:42.977Z,92.36
2023-04-30T05:44:09.857Z,92.09
2023-04-30T05:46:37.238Z,91.89
2023-04-30T05:49:04.180Z,91.54
2023-04-30T05:51:31.197Z,91.22
2023-04-30T05:53:58.129Z,89.85
2023-04-30T05:56:25.570Z,89.27
2023-04-30T05:58:53.110Z,88.45
2023-04-30T06:01:21.356Z,88.12
2023-04-30T06:03:48.289Z,88.04
2023-04-30T06:06:15.289Z,87.98
2023-04-30T06:08:45.159Z,88.12
2023-04-30T06:11:13.630Z,87.72
2023-04-30T06:13:41.273Z,88.32
2023-04-30T06:16:08.867Z,88.24
2023-04-30T06:18:36.414Z,87.98
2023-04-30T06:21:03.482Z,87.82
2023-04-30T06:23:30.445Z,87.35
2023-04-30T06:25:57.709Z,85.91
2023-04-30T06:28:24.770Z,86.41
2023-04-30T06:30:52.300Z,86.65
2023-04-30T06:33:19.223Z,86.77
2023-04-30T06:35:46.136Z,86.80
2023-04-30T06:38:13.928Z,87.15
2023-04-30T06:40:41.011Z,86.90
2023-04-30T06:43:08.016Z,86.74
2023-04-30T06:45:35.646Z,86.55
2023-04-30T06:48:02.640Z,86.72
2023-04-30T06:50:29.620Z,86.82
2023-04-30T06:52:56.572Z,86.04
2023-04-30T06:55:23.899Z,86.21
2023-04-30T06:57:54.721Z,85.60
2023-04-30T07:00:21.691Z,85.68
2023-04-30T07:02:52.272Z,85.56
2023-04-30T07:05:19.431Z,84.97
2023-04-30T07:07:46.845Z,84.85
2023-04-30T07:10:13.753Z,84.39
2023-04-30T07:12:40.621Z,83.98
2023-04-30T07:15:08.336Z,83.55
2023-04-30T07:17:35.562Z,82.52
2023-04-30T07:20:02.641Z,81.45
2023-04-30T07:22:29.683Z,82.28
2023-04-30T07:24:56.749Z,82.68
2023-04-30T07:27:24.093Z,82.58
2023-04-30T07:29:52.062Z,81.94
2023-04-30T07:32:18.986Z,81.92
2023-04-30T07:34:45.979Z,81.42
2023-04-30T07:37:13.696Z,80.91
2023-04-30T07:39:41.024Z,81.02
2023-04-30T07:42:07.891Z,80.30
2023-04-30T07:44:34.760Z,80.08
2023-04-30T07:47:01.817Z,80.08
2023-04-30T07:49:29.132Z,79.90
2023-04-30T07:51:56.670Z,80.46
2023-04-30T07:54:23.849Z,80.60
2023-04-30T07:56:50.729Z,81.47
2023-04-30T07:59:17.948Z,82.16
2023-04-30T08:01:45.463Z,82.95
2023-04-30T08:04:12.709Z,82.87
2023-04-30T08:06:39.711Z,83.85
2023-04-30T08:09:06.659Z,84.57
2023-04-30T08:11:33.751Z,84.46
2023-04-30T08:14:00.788Z,85.29
2023-04-30T08:16:27.966Z,85.38
2023-04-30T08:18:54.896Z,86.40
2023-04-30T08:21:21.973Z,87.29
2023-04-30T08:23:49.312Z,88.71
2023-04-30T08:26:16.187Z,89.85
2023-04-30T08:28:43.169Z,90.61
2023-04-30T08:31:10.514Z,91.37
2023-04-30T08:33:37.393Z,91.09
2023-04-30T08:36:04.673Z,91.87
2023-04-30T08:38:31.573Z,92.29
2023-04-30T08:41:11.545Z,92.75
2023-04-30T08:43:38.992Z,93.04
2023-04-30T08:46:06.896Z,93.82
2023-04-30T08:48:34.589Z,93.79
2023-04-30T08:51:04.941Z,93.71
2023-04-30T08:53:35.330Z,93.82
2023-04-30T08:56:03.790Z,94.10
2023-04-30T08:58:31.034Z,94.32
2023-04-30T09:01:00.230Z,94.52
2023-04-30T09:03:28.643Z,94.26
2023-04-30T09:05:56.494Z,94.29
2023-04-30T09:08:47.457Z,93.77
2023-04-30T09:11:30.834Z,93.78
2023-04-30T09:14:00.858Z,93.37
2023-04-30T09:16:46.562Z,93.51
2023-04-30T09:19:30.901Z,92.68
2023-04-30T09:21:58.592Z,92.84
2023-04-30T09:24:25.880Z,93.31
2023-04-30T09:26:54.601Z,93.36
2023-04-30T09:29:21.559Z,93.40
2023-04-30T09:31:48.722Z,93.99
2023-04-30T09:34:16.268Z,94.34
2023-04-30T09:36:57.072Z,94.13
2023-04-30T09:39:24.367Z,94.51
2023-04-30T09:41:52.334Z,95.04
2023-04-30T09:44:40.632Z,95.28
2023-04-30T09:47:16.204Z,95.28
2023-04-30T09:49:46.773Z,95.26
2023-04-30T09:52:16.399Z,95.47
2023-04-30T09:54:45.986Z,95.09
2023-04-30T09:57:15.849Z,94.91
2023-04-30T09:59:47.424Z,94.08
2023-04-30T10:02:17.161Z,93.32
2023-04-30T10:04:45.806Z,91.49
2023-04-30T10:07:25.220Z,90.53
2023-04-30T10:10:00.624Z,89.57
2023-04-30T10:12:48.660Z,89.47
2023-04-30T10:15:21.016Z,88.45
2023-04-30T10:17:58.436Z,88.35
2023-04-30T10:20:27.087Z,87.31
2023-04-30T10:22:54.725Z,86.23
2023-04-30T10:25:23.794Z,84.83
2023-04-30T10:27:52.065Z,83.93
2023-04-30T10:30:19.138Z,83.65
2023-04-30T10:33:16.781Z,80.65
2023-04-30T10:36:04.525Z,81.63
2023-04-30T10:38:32.996Z,80.49
2023-04-30T10:41:04.090Z,78.94
2023-04-30T10:43:31.764Z,76.72
2023-04-30T10:45:59.271Z,76.13
2023-04-30T10:48:27.559Z,75.72
2023-04-30T10:51:01.339Z,75.85
2023-04-30T10:53:32.226Z,75.37
2023-04-30T10:56:09.670Z,74.21
2023-04-30T10:58:41.656Z,73.79
2023-04-30T11:01:15.832Z,73.78
2023-04-30T11:04:07.296Z,73.40
2023-04-30T11:06:52.828Z,73.50
2023-04-30T11:09:21.841Z,71.87
2023-04-30T11:12:04.002Z,70.89
2023-04-30T11:14:34.404Z,72.26
2023-04-30T11:17:02.670Z,71.32
2023-04-30T11:19:34.860Z,71.54
2023-04-30T11:22:04.525Z,70.58
2023-04-30T11:24:59.519Z,69.81
2023-04-30T11:27:32.459Z,70.65
2023-04-30T11:30:00.931Z,71.88
2023-04-30T11:32:37.588Z,71.45
2023-04-30T11:35:06.940Z,70.81
2023-04-30T11:37:38.046Z,71.98
2023-04-30T11:40:11.334Z,72.67
2023-04-30T11:42:40.191Z,72.31
2023-04-30T11:45:13.198Z,72.50
2023-04-30T11:47:49.426Z,72.79
2023-04-30T11:50:19.803Z,73.59
2023-04-30T11:52:53.033Z,73.46
2023-04-30T11:55:22.577Z,74.55
2023-04-30T11:57:53.290Z,75.14
2023-04-30T12:00:27.335Z,75.79
2023-04-30T12:02:55.605Z,76.77
2023-04-30T12:05:28.385Z,77.20
2023-04-30T12:08:06.884Z,77.48
2023-04-30T12:10:34.172Z,78.28
2023-04-30T12:13:01.463Z,77.84
2023-04-30T12:15:29.309Z,77.39
2023-04-30T12:18:00.751Z,77.42
2023-04-30T12:20:31.479Z,77.68
2023-04-30T12:22:58.927Z,77.44
2023-04-30T12:25:29.617Z,77.33
2023-04-30T12:27:59.965Z,77.61
2023-04-30T12:30:27.829Z,77.57
2023-04-30T12:32:58.851Z,77.64
2023-04-30T12:35:29.970Z,77.90
2023-04-30T12:38:08.433Z,78.18
2023-04-30T12:40:35.931Z,77.75
2023-04-30T12:43:08.769Z,78.09
2023-04-30T12:45:48.725Z,78.11
2023-04-30T12:48:16.519Z,78.14
2023-04-30T12:51:01.020Z,79.64
2023-04-30T12:53:28.999Z,81.24
2023-04-30T12:56:15.495Z,82.86
2023-04-30T12:58:50.303Z,83.17
2023-04-30T13:01:23.333Z,85.40
2023-04-30T13:03:51.679Z,84.50
2023-04-30T13:06:18.832Z,85.44
2023-04-30T13:08:58.060Z,86.43
2023-04-30T13:11:27.349Z,86.38
2023-04-30T13:13:57.609Z,86.29
2023-04-30T13:16:25.691Z,86.67
2023-04-30T13:18:53.619Z,86.71
2023-04-30T13:21:21.664Z,86.84
2023-04-30T13:23:52.654Z,85.99
2023-04-30T13:26:20.792Z,85.67
2023-04-30T13:28:47.659Z,84.92
2023-04-30T13:31:14.653Z,84.75
2023-04-30T13:33:41.855Z,85.02
2023-04-30T13:36:08.817Z,84.42
2023-04-30T13:38:35.691Z,84.80
2023-04-30T13:41:02.731Z,84.61
2023-04-30T13:43:29.608Z,84.92
2023-04-30T13:45:56.677Z,85.14
2023-04-30T13:48:23.843Z,85.80
2023-04-30T13:50:52.682Z,85.81
2023-04-30T13:53:20.029Z,85.78
2023-04-30T13:55:46.993Z,86.59
2023-04-30T13:58:14.209Z,86.88
2023-04-30T14:00:41.423Z,87.94
2023-04-30T14:03:08.683Z,87.24
2023-04-30T14:05:36.936Z,87.27
2023-04-30T14:08:05.025Z,87.18
2023-04-30T14:10:33.144Z,86.58
2023-04-30T14:13:00.256Z,85.21
2023-04-30T14:15:30.875Z,84.21
2023-04-30T14:17:58.147Z,84.31
2023-04-30T14:20:25.974Z,84.83
2023-04-30T14:22:53.257Z,85.43
2023-04-30T14:25:20.779Z,85.47
2023-04-30T14:27:47.844Z,85.58
2023-04-30T14:30:17.916Z,85.94
2023-04-30T14:32:44.889Z,86.21
2023-04-30T14:35:11.820Z,86.56
2023-04-30T14:37:38.743Z,86.82
2023-04-30T14:40:08.485Z,87.72
2023-04-30T14:42:35.448Z,87.59
2023-04-30T14:45:02.501Z,89.09
2023-04-30T14:47:29.638Z,88.80
2023-04-30T14:49:59.276Z,89.55
2023-04-30T14:52:26.244Z,89.80
2023-04-30T14:54:53.265Z,89.86
2023-04-30T14:57:20.631Z,91.19
2023-04-30T14:59:47.849Z,90.35
2023-04-30T15:02:15.270Z,91.34
2023-04-30T15:04:46.288Z,92.30
2023-04-30T15:07:13.496Z,92.83
2023-04-30T15:09:40.565Z,92.07
2023-04-30T15:12:07.472Z,93.33
2023-04-30T15:14:34.302Z,92.90
2023-04-30T15:17:01.386Z,92.55
2023-04-30T15:19:28.614Z,92.13
2023-04-30T15:21:55.482Z,92.35
2023-04-30T15:24:22.592Z,92.61
2023-04-30T15:26:51.377Z,92.54
2023-04-30T15:29:18.347Z,91.25
2023-04-30T15:31:45.322Z,90.85
2023-04-30T15:34:12.263Z,89.73
2023-04-30T15:36:39.439Z,88.77
2023-04-30T15:39:06.319Z,86.83
2023-04-30T15:41:33.188Z,86.05
2023-04-30T15:44:00.651Z,85.43
2023-04-30T15:46:27.662Z,84.79
2023-04-30T15:48:54.669Z,84.29
2023-04-30T15:51:21.585Z,85.06
2023-04-30T15:53:48.800Z,85.11
2023-04-30T15:56:18.705Z,85.04
2023-04-30T15:58:45.619Z,84.77
2023-04-30T16:01:13.073Z,85.01
2023-04-30T16:03:40.211Z,85.40
2023-04-30T16:06:07.580Z,85.95
2023-04-30T16:08:34.733Z,85.59
2023-04-30T16:11:01.986Z,85.08
2023-04-30T16:13:29.129Z,85.44
2023-04-30T16:15:56.312Z,85.69
2023-04-30T16:18:23.468Z,85.65
2023-04-30T16:20:50.470Z,86.00
2023-04-30T16:23:17.557Z,86.50
2023-04-30T16:25:45.758Z,86.65
2023-04-30T16:28:12.626Z,86.50
2023-04-30T16:30:39.723Z,86.36
2023-04-30T16:33:07.287Z,85.28
2023-04-30T16:35:34.419Z,86.09
2023-04-30T16:38:02.803Z,85.86
2023-04-30T16:40:29.706Z,86.47
2023-04-30T16:42:56.925Z,87.03
2023-04-30T16:45:23.836Z,86.66
2023-04-30T16:47:51.133Z,86.47
2023-04-30T16:50:19.298Z,86.52
2023-04-30T16:52:46.243Z,87.15
2023-04-30T16:55:14.096Z,86.72
2023-04-30T16:57:41.113Z,86.90
2023-04-30T17:00:12.025Z,87.13
2023-04-30T17:02:41.012Z,86.95
2023-04-30T17:05:11.606Z,86.88
2023-04-30T17:07:38.784Z,86.90
2023-04-30T17:10:06.758Z,87.20
2023-04-30T17:12:33.690Z,86.99
2023-04-30T17:15:00.652Z,87.40
2023-04-30T17:17:27.519Z,87.34
2023-04-30T17:19:54.664Z,87.18
2023-04-30T17:22:21.744Z,87.05
2023-04-30T17:24:49.179Z,86.93
2023-04-30T17:27:16.344Z,86.58
2023-04-30T17:29:43.461Z,86.95
2023-04-30T17:32:11.416Z,86.76
2023-04-30T17:34:38.622Z,86.67
2023-04-30T17:37:06.018Z,87.39
2023-04-30T17:39:32.921Z,86.81
2023-04-30T17:42:00.066Z,86.60
2023-04-30T17:44:27.084Z,86.25
2023-04-30T17:46:54.202Z,86.20
2023-04-30T17:49:21.253Z,85.79
2023-04-30T17:51:48.642Z,85.42
2023-04-30T17:54:15.714Z,85.08
2023-04-30T17:56:42.836Z,85.38
2023-04-30T17:59:09.789Z,85.18
2023-04-30T18:01:38.366Z,85.00
2023-04-30T18:04:08.902Z,85.52
2023-04-30T18:06:36.753Z,85.76
2023-04-30T18:09:04.872Z,86.11
2023-04-30T18:11:32.001Z,86.97
2023-04-30T18:13:58.928Z,87.71
2023-04-30T18:16:25.928Z,88.64
2023-04-30T18:18:52.817Z,89.86
2023-04-30T18:21:19.785Z,90.25
2023-04-30T18:23:47.607Z,91.05
2023-04-30T18:26:14.494Z,92.08
2023-04-30T18:28:42.718Z,93.54
2023-04-30T18:31:09.673Z,93.76
2023-04-30T18:33:36.903Z,93.96
2023-04-30T18:36:06.117Z,94.68
2023-04-30T18:38:34.029Z,95.82
2023-04-30T18:41:02.014Z,96.69
2023-04-30T18:43:28.972Z,97.08
2023-04-30T18:45:56.073Z,97.56
2023-04-30T18:48:23.292Z,98.11
2023-04-30T18:50:50.934Z,98.40
2023-04-30T18:53:18.932Z,98.58
2023-04-30T18:55:46.378Z,100.00
2023-04-30T18:58:13.598Z,99.59
2023-04-30T19:00:43.497Z,99.76
2023-04-30T19:03:10.785Z,100.00
2023-04-30T19:05:38.277Z,99.87
2023-04-30T19:08:05.174Z,100.00
2023-04-30T19:10:34.925Z,100.00
2023-04-30T19:13:02.350Z,100.00
2023-04-30T19:15:30.253Z,100.00
2023-04-30T19:17:58.051Z,100.00
2023-04-30T19:20:25.087Z,100.00
2023-04-30T19:22:52.002Z,100.00
2023-04-30T19:25:18.960Z,100.00
2023-04-30T19:27:47.313Z,100.00
2023-04-30T19:30:14.771Z,100.00
2023-04-30T19:32:42.285Z,100.00
2023-04-30T19:35:09.540Z,100.00
2023-04-30T19:37:36.965Z,100.00
2023-04-30T19:40:10.725Z,100.00
2023-04-30T19:42:39.317Z,100.00
2023-04-30T19:45:09.045Z,100.00
2023-04-30T19:47:36.935Z,100.00
2023-04-30T19:50:04.078Z,100.00
2023-04-30T19:52:30.985Z,100.00
2023-04-30T19:54:58.769Z,100.00
2023-04-30T19:57:26.350Z,100.00
2023-04-30T19:59:53.402Z,100.00
2023-04-30T20:02:20.510Z,100.00
2023-04-30T20:04:47.496Z,100.00
2023-04-30T20:07:14.543Z,100.00
2023-04-30T20:09:41.730Z,100.00
2023-04-30T20:12:08.729Z,100.00
2023-04-30T20:14:36.069Z,100.00
2023-04-30T20:17:03.116Z,100.00
2023-04-30T20:19:30.420Z,100.00
2023-04-30T20:21:57.465Z,100.00
2023-04-30T20:24:24.900Z,100.00
2023-04-30T20:26:51.780Z,100.00
2023-04-30T20:29:20.888Z,100.00
2023-04-30T20:31:48.073Z,100.00
2023-04-30T20:34:14.996Z,100.00
2023-04-30T20:36:41.879Z,100.00
2023-04-30T20:39:09.163Z,100.00
2023-04-30T20:41:36.458Z,100.00
2023-04-30T20:44:03.330Z,100.00
2023-04-30T20:46:32.408Z,100.00
2023-04-30T20:49:04.245Z,100.00
2023-04-30T20:51:31.656Z,100.00
2023-04-30T20:53:58.564Z,100.00
2023-04-30T20:56:26.180Z,100.00
2023-04-30T20:58:54.086Z,100.00
2023-04-30T21:01:21.125Z,100.00
2023-04-30T21:03:49.492Z,100.00
2023-04-30T21:06:17.990Z,100.00
2023-04-30T21:08:44.978Z,100.00
2023-04-30T21:11:14.340Z,100.00
2023-04-30T21:13:41.956Z,100.00
2023-04-30T21:16:09.082Z,100.00
2023-04-30T21:18:35.992Z,100.00
2023-04-30T21:21:05.170Z,100.00
2023-04-30T21:23:32.944Z,100.00
2023-04-30T21:25:59.891Z,100.00
2023-04-30T21:28:27.054Z,100.00
2023-04-30T21:30:54.104Z,100.00
2023-04-30T21:33:21.216Z,100.00
2023-04-30T21:35:48.103Z,100.00
2023-04-30T21:38:15.005Z,100.00
2023-04-30T21:40:43.541Z,100.00
2023-04-30T21:43:10.424Z,100.00
2023-04-30T21:45:37.331Z,100.00
2023-04-30T21:48:05.858Z,100.00
2023-04-30T21:50:34.040Z,100.00
2023-04-30T21:53:03.471Z,100.00
2023-04-30T21:55:30.842Z,100.00
2023-04-30T21:57:57.922Z,100.00
2023-04-30T22:00:25.536Z,100.00
2023-04-30T22:02:52.519Z,100.00
2023-04-30T22:05:22.667Z,100.00
2023-04-30T22:07:49.690Z,100.00
2023-04-30T22:10:16.594Z,100.00
2023-04-30T22:12:47.183Z,100.00
2023-04-30T22:15:15.451Z,100.00
2023-04-30T22:17:42.533Z,100.00
2023-04-30T22:20:10.279Z,100.00
2023-04-30T22:22:37.254Z,100.00
2023-04-30T22:25:04.986Z,100.00
2023-04-30T22:27:32.326Z,100.00
2023-04-30T22:29:59.328Z,100.00
2023-04-30T22:32:26.538Z,100.00
2023-04-30T22:34:53.598Z,100.00
2023-04-30T22:37:20.528Z,100.00
2023-04-30T22:39:48.622Z,100.00
2023-04-30T22:42:17.099Z,100.00
2023-04-30T22:44:45.609Z,100.00
2023-04-30T22:47:12.770Z,100.00
2023-04-30T22:49:39.848Z,100.00
2023-04-30T22:52:07.544Z,100.00
2023-04-30T22:54:35.906Z,100.00
2023-04-30T22:57:03.300Z,100.00
2023-04-30T22:59:30.250Z,100.00
2023-04-30T23:01:57.451Z,100.00
2023-04-30T23:04:26.173Z,100.00
2023-04-30T23:06:53.660Z,100.00
2023-04-30T23:09:20.523Z,100.00
2023-04-30T23:11:48.501Z,100.00
2023-04-30T23:14:15.513Z,100.00
2023-04-30T23:16:43.140Z,100.00
2023-04-30T23:19:10.577Z,100.00
2023-04-30T23:21:38.035Z,100.00
2023-04-30T23:24:05.326Z,100.00
2023-04-30T23:26:32.239Z,100.00
2023-04-30T23:28:59.629Z,100.00
2023-04-30T23:31:27.449Z,100.00
2023-04-30T23:33:54.520Z,100.00
2023-04-30T23:36:21.442Z,100.00
2023-04-30T23:38:48.332Z,100.00
2023-04-30T23:41:15.757Z,100.00
2023-04-30T23:43:42.635Z,100.00
2023-04-30T23:46:09.841Z,100.00
2023-04-30T23:48:36.965Z,100.00
2023-04-30T23:51:06.031Z,100.00
2023-04-30T23:53:32.904Z,100.00
2023-04-30T23:56:00.518Z,100.00
2023-04-30T23:58:31.840Z,100.00
